Time;durP1;ratioP1;P1;durP2;ratioP2;P2;SDS_P1;SDS_P2;PMS_P1;PMS_P2;Temp;Humidity;BMP_temperature;BMP_pressure;BME280_temperature;BME280_humidity;BME280_pressure;Samples;Min_cycle;Max_cycle;Signal;HPM_P1;HPM_P2
2019/04/05 00:02:21;;;;;;;31.4;26;;;;;;;6.38;72.34375;948.5703;;;;
2019/04/05 00:04:46;;;;;;;30.1;25;;;;;;;6.43;72.2002;948.565;;;;
2019/04/05 00:07:11;;;;;;;30.9;25.1;;;;;;;6.46;72.21973;948.5995;;;;
2019/04/05 00:09:36;;;;;;;31.2;25;;;;;;;6.48;72.00293;948.6728;;;;
2019/04/05 00:12:02;;;;;;;32;26.1;;;;;;;6.42;72.22363;948.6881;;;;
2019/04/05 00:14:27;;;;;;;30.6;25.1;;;;;;;6.46;72.13867;948.7088;;;;
2019/04/05 00:16:52;;;;;;;27.8;23.5;;;;;;;6.48;72.16309;948.6855;;;;
2019/04/05 00:19:17;;;;;;;29.5;25.5;;;;;;;6.45;72.35547;948.6719;;;;
2019/04/05 00:21:42;;;;;;;28.5;23.8;;;;;;;6.6;71.59961;948.7219;;;;
2019/04/05 00:24:07;;;;;;;29.9;24.8;;;;;;;6.63;71.62695;948.7358;;;;
2019/04/05 00:26:32;;;;;;;29.9;24.6;;;;;;;6.64;71.27344;948.7134;;;;
2019/04/05 00:28:57;;;;;;;29.8;24.5;;;;;;;6.57;71.50195;948.7433;;;;
2019/04/05 00:31:23;;;;;;;30.8;25.5;;;;;;;6.33;72.41406;948.7547;;;;
2019/04/05 00:33:48;;;;;;;30.6;25.3;;;;;;;6.36;72.3291;948.7754;;;;
2019/04/05 00:36:13;;;;;;;32.1;25.4;;;;;;;6.36;72.33984;948.6697;;;;
2019/04/05 00:38:38;;;;;;;31.1;24.7;;;;;;;6.32;72.49316;948.6237;;;;
2019/04/05 00:41:03;;;;;;;31.5;25.9;;;;;;;6.38;72.10156;948.5624;;;;
2019/04/05 00:43:28;;;;;;;32.5;26.1;;;;;;;6.36;72.17871;948.6404;;;;
2019/04/05 00:45:53;;;;;;;32;26.1;;;;;;;6.28;72.45117;948.6631;;;;
2019/04/05 00:48:19;;;;;;;31.3;25;;;;;;;6.28;72.55469;948.6925;;;;
2019/04/05 00:50:44;;;;;;;31.7;26.6;;;;;;;6.24;72.70898;948.6627;;;;
2019/04/05 00:53:09;;;;;;;32.9;25.7;;;;;;;6.25;72.5957;948.6071;;;;
2019/04/05 00:55:37;;;;;;;32.9;27.1;;;;;;;6.22;73.04883;948.5767;;;;
2019/04/05 00:57:59;;;;;;;33.7;27.3;;;;;;;6.2;72.63281;948.7151;;;;
2019/04/05 01:00:25;;;;;;;30.6;25.4;;;;;;;6.21;72.77148;948.7475;;;;
2019/04/05 01:02:50;;;;;;;33;26.9;;;;;;;6.31;72.37695;948.8326;;;;
2019/04/05 01:05:15;;;;;;;32.5;26.5;;;;;;;6.46;71.65625;948.8538;;;;
2019/04/05 01:07:40;;;;;;;32.3;26.4;;;;;;;6.37;71.72168;948.9064;;;;
2019/04/05 01:10:05;;;;;;;34.1;27.2;;;;;;;6.32;71.9873;948.8699;;;;
2019/04/05 01:12:31;;;;;;;33.9;26.9;;;;;;;6.31;72.34277;948.8708;;;;
2019/04/05 01:14:56;;;;;;;33;26.1;;;;;;;6.46;71.38281;948.8906;;;;
2019/04/05 01:17:21;;;;;;;32.8;26.4;;;;;;;6.56;70.88379;948.9261;;;;
2019/04/05 01:19:46;;;;;;;32.7;27.3;;;;;;;6.57;70.76855;948.972;;;;
2019/04/05 01:22:11;;;;;;;32;25.7;;;;;;;6.64;70.64453;948.9669;;;;
2019/04/05 01:24:36;;;;;;;32.3;26.6;;;;;;;6.7;70.11426;948.9476;;;;
2019/04/05 01:27:01;;;;;;;32.5;26.7;;;;;;;6.68;70.17969;948.9536;;;;
2019/04/05 01:29:26;;;;;;;32.7;26.5;;;;;;;6.71;69.7959;948.9244;;;;
2019/04/05 01:31:52;;;;;;;32.3;26.6;;;;;;;6.62;70.25;948.9617;;;;
2019/04/05 01:34:17;;;;;;;34.8;28;;;;;;;6.51;70.37012;948.945;;;;
2019/04/05 01:36:42;;;;;;;34.2;27.2;;;;;;;6.6;70.0752;948.9341;;;;
2019/04/05 01:39:07;;;;;;;35.4;28;;;;;;;6.44;70.93262;948.9698;;;;
2019/04/05 01:41:32;;;;;;;34.9;28;;;;;;;6.53;70.50098;948.9247;;;;
2019/04/05 01:43:57;;;;;;;33.1;26.5;;;;;;;6.62;70.45605;948.8766;;;;
2019/04/05 01:46:22;;;;;;;33.8;27.2;;;;;;;6.59;70.12988;948.9016;;;;
2019/04/05 01:48:48;;;;;;;34;27.4;;;;;;;6.47;70.63965;948.9445;;;;
2019/04/05 01:51:13;;;;;;;36.6;28.9;;;;;;;6.36;71.14844;948.877;;;;
2019/04/05 01:53:38;;;;;;;35.7;27.6;;;;;;;6.35;71.47949;948.9375;;;;
2019/04/05 01:56:04;;;;;;;34.4;26.9;;;;;;;6.47;70.8916;948.9367;;;;
2019/04/05 01:58:29;;;;;;;35;27.5;;;;;;;6.45;70.87598;948.8967;;;;
2019/04/05 02:00:54;;;;;;;36.7;28.4;;;;;;;6.48;71.0293;948.8253;;;;
2019/04/05 02:03:19;;;;;;;37.1;28.7;;;;;;;6.34;71.39648;948.9054;;;;
2019/04/05 02:05:44;;;;;;;35.3;27.7;;;;;;;6.31;71.3916;948.9216;;;;
2019/04/05 02:08:09;;;;;;;36.1;27.6;;;;;;;6.34;71.23633;948.9141;;;;
2019/04/05 02:10:34;;;;;;;35;27.5;;;;;;;6.42;71.36426;948.9471;;;;
2019/04/05 02:12:59;;;;;;;36;27.9;;;;;;;6.51;71.00098;948.8688;;;;
2019/04/05 02:15:25;;;;;;;35.3;26.8;;;;;;;6.56;70.40039;948.884;;;;
2019/04/05 02:17:50;;;;;;;35.8;27.8;;;;;;;6.6;70.22461;948.8197;;;;
2019/04/05 02:22:19;;;;;;;36.2;28.3;;;;;;;6.54;70.43164;948.827;;;;
2019/04/05 02:24:44;;;;;;;34.9;27.4;;;;;;;6.57;70.35742;948.8528;;;;
2019/04/05 02:27:09;;;;;;;34.4;28.1;;;;;;;6.61;70.47754;948.8862;;;;
2019/04/05 02:29:34;;;;;;;33.4;26.8;;;;;;;6.64;69.78418;948.9501;;;;
2019/04/05 02:31:59;;;;;;;35.3;28.5;;;;;;;6.51;70.53027;948.9744;;;;
2019/04/05 02:34:25;;;;;;;35.7;28.4;;;;;;;6.63;69.87305;948.863;;;;
2019/04/05 02:36:50;;;;;;;35.4;27.6;;;;;;;6.61;70.12305;948.9196;;;;
2019/04/05 02:39:15;;;;;;;35.5;28;;;;;;;6.65;69.73828;948.8945;;;;
2019/04/05 02:41:40;;;;;;;34.4;27.8;;;;;;;6.65;69.68262;948.9278;;;;
2019/04/05 02:44:05;;;;;;;36.9;28.9;;;;;;;6.59;69.86719;948.9515;;;;
2019/04/05 02:46:30;;;;;;;34.6;27.1;;;;;;;6.69;69.52832;948.894;;;;
2019/04/05 02:48:55;;;;;;;36.1;28.8;;;;;;;6.63;69.66699;948.9901;;;;
2019/04/05 02:51:20;;;;;;;38.2;28.9;;;;;;;6.48;70.22656;949.0669;;;;
2019/04/05 02:53:45;;;;;;;36.9;29.1;;;;;;;6.46;70.64941;949.0392;;;;
2019/04/05 02:56:11;;;;;;;38.1;29.1;;;;;;;6.48;70.77832;949.0239;;;;
2019/04/05 02:58:36;;;;;;;36.6;28.5;;;;;;;6.5;70.78027;949.0181;;;;
2019/04/05 03:01:01;;;;;;;39.9;30.3;;;;;;;6.6;71.3252;949.0397;;;;
2019/04/05 03:03:26;;;;;;;37.5;28.9;;;;;;;6.66;70.81934;949.1089;;;;
2019/04/05 03:05:52;;;;;;;37.1;28.5;;;;;;;6.67;70.66016;949.0356;;;;
2019/04/05 03:08:17;;;;;;;37.5;29.3;;;;;;;6.69;70.74316;949.0541;;;;
2019/04/05 03:10:42;;;;;;;38.5;29.1;;;;;;;6.79;70.07129;949.1022;;;;
2019/04/05 03:13:07;;;;;;;40;30.6;;;;;;;6.79;70.19727;949.0681;;;;
2019/04/05 03:15:32;;;;;;;40.3;30.7;;;;;;;6.72;70.74805;949.0681;;;;
2019/04/05 03:17:58;;;;;;;40.1;30.2;;;;;;;6.79;70.99023;949.0808;;;;
2019/04/05 03:20:23;;;;;;;38;30.1;;;;;;;6.86;70.46191;949.0558;;;;
2019/04/05 03:22:48;;;;;;;40.8;30.6;;;;;;;6.76;70.8584;948.9913;;;;
2019/04/05 03:25:15;;;;;;;39.6;30;;;;;;;6.83;70.37695;948.9742;;;;
2019/04/05 03:27:40;;;;;;;40.5;29.8;;;;;;;6.83;69.9873;949.0036;;;;
2019/04/05 03:30:05;;;;;;;39.2;29.9;;;;;;;6.74;70.28223;948.9892;;;;
2019/04/05 03:32:31;;;;;;;42.1;30.6;;;;;;;6.76;70.35352;949.0589;;;;
2019/04/05 03:34:56;;;;;;;41.9;30.7;;;;;;;6.73;70.58984;949.0712;;;;
2019/04/05 03:37:21;;;;;;;40.6;29.5;;;;;;;6.78;70.40234;948.9886;;;;
2019/04/05 03:39:46;;;;;;;44.5;31.8;;;;;;;6.69;70.60547;948.9489;;;;
2019/04/05 03:42:11;;;;;;;42.6;31;;;;;;;6.72;70.49707;948.9744;;;;
2019/04/05 03:44:36;;;;;;;42.4;30.2;;;;;;;6.72;70.3125;948.9537;;;;
2019/04/05 03:47:01;;;;;;;42;30.6;;;;;;;6.66;70.55371;948.9357;;;;
2019/04/05 03:49:26;;;;;;;43.1;30.3;;;;;;;6.64;70.54102;949.0305;;;;
2019/04/05 03:51:51;;;;;;;47;32.5;;;;;;;6.62;70.68555;949.0545;;;;
2019/04/05 03:54:17;;;;;;;43.5;30.9;;;;;;;6.7;70.45996;949.0993;;;;
2019/04/05 03:56:42;;;;;;;42.4;30.4;;;;;;;6.68;70.4668;949.115;;;;
2019/04/05 03:59:07;;;;;;;42.9;30.4;;;;;;;6.7;70.33398;949.0826;;;;
2019/04/05 04:02:27;;;;;;;43.1;30.6;;;;;;;6.77;70.21582;949.1813;;;;
2019/04/05 04:04:52;;;;;;;43.3;31.2;;;;;;;6.74;70.35059;949.1711;;;;
2019/04/05 04:07:17;;;;;;;44.4;30.7;;;;;;;6.68;70.63867;949.2548;;;;
2019/04/05 04:09:42;;;;;;;43.9;30.9;;;;;;;6.78;70.19629;949.2352;;;;
2019/04/05 04:12:07;;;;;;;45.5;31.5;;;;;;;6.75;70.34082;949.1917;;;;
2019/04/05 04:14:32;;;;;;;44.1;31.3;;;;;;;6.85;70.19629;949.1878;;;;
2019/04/05 04:16:57;;;;;;;46.6;32.4;;;;;;;6.85;69.95703;949.2171;;;;
2019/04/05 04:19:22;;;;;;;46.6;31.8;;;;;;;6.75;70.29395;949.2514;;;;
2019/04/05 04:21:47;;;;;;;45.2;31;;;;;;;6.68;70.57031;949.2715;;;;
2019/04/05 04:24:12;;;;;;;48.1;32.3;;;;;;;6.68;70.75293;949.1746;;;;
2019/04/05 04:26:38;;;;;;;47.6;32.1;;;;;;;6.68;70.4668;949.2469;;;;
2019/04/05 04:29:03;;;;;;;47.4;32.2;;;;;;;6.66;70.48633;949.3035;;;;
2019/04/05 04:31:28;;;;;;;44.8;32.4;;;;;;;6.74;70.23633;949.2093;;;;
2019/04/05 04:33:53;;;;;;;47.2;32.5;;;;;;;6.76;70.59473;949.1781;;;;
2019/04/05 04:36:18;;;;;;;45.8;32.2;;;;;;;6.87;70.0498;949.2241;;;;
2019/04/05 04:38:44;;;;;;;47.8;33.9;;;;;;;6.83;70.41113;949.2031;;;;
2019/04/05 04:41:09;;;;;;;48.9;32.2;;;;;;;6.9;69.91699;949.1697;;;;
2019/04/05 04:43:34;;;;;;;46.1;32.3;;;;;;;6.92;69.77246;949.2648;;;;
2019/04/05 04:45:59;;;;;;;46.2;32;;;;;;;6.96;69.75488;949.2512;;;;
2019/04/05 04:48:24;;;;;;;47.5;33.1;;;;;;;6.95;69.63867;949.1806;;;;
2019/04/05 04:50:49;;;;;;;48.3;32.2;;;;;;;6.87;69.71777;949.2114;;;;
2019/04/05 04:53:14;;;;;;;52.6;33;;;;;;;6.86;69.83203;949.2417;;;;
2019/04/05 04:55:40;;;;;;;51.1;33.9;;;;;;;6.78;70.65625;949.1833;;;;
2019/04/05 04:58:05;;;;;;;51.2;33.4;;;;;;;6.61;71.29004;949.1492;;;;
2019/04/05 05:00:30;;;;;;;50.3;33.8;;;;;;;6.69;71.04199;949.0847;;;;
2019/04/05 05:02:55;;;;;;;50.4;33.9;;;;;;;6.66;71.20801;949.1049;;;;
2019/04/05 05:05:20;;;;;;;52.9;33.4;;;;;;;6.69;70.99707;949.1599;;;;
2019/04/05 05:07:45;;;;;;;49.8;33.4;;;;;;;6.71;70.91797;949.2177;;;;
2019/04/05 05:10:11;;;;;;;52.6;33.8;;;;;;;6.63;71.375;949.3158;;;;
2019/04/05 05:12:36;;;;;;;52;34.3;;;;;;;6.67;71.33691;949.2733;;;;
2019/04/05 05:15:03;;;;;;;52.2;34;;;;;;;6.65;71.32227;949.3053;;;;
2019/04/05 05:17:28;;;;;;;55.5;35.1;;;;;;;6.6;71.64551;949.2813;;;;
2019/04/05 05:19:53;;;;;;;51.1;33.3;;;;;;;6.66;71.42578;949.3552;;;;
2019/04/05 05:22:18;;;;;;;51.3;34.3;;;;;;;6.63;71.35352;949.4469;;;;
2019/04/05 05:24:43;;;;;;;51.5;33.1;;;;;;;6.65;71.29883;949.4617;;;;
2019/04/05 05:27:08;;;;;;;56;34.6;;;;;;;6.64;71.81348;949.4459;;;;
2019/04/05 05:29:33;;;;;;;55.9;35.4;;;;;;;6.51;72.49219;949.4779;;;;
2019/04/05 05:31:59;;;;;;;56.3;33.6;;;;;;;6.57;72.31738;949.4542;;;;
2019/04/05 05:34:24;;;;;;;56.3;34.1;;;;;;;6.58;72.62891;949.3767;;;;
2019/04/05 05:36:49;;;;;;;50.5;33.5;;;;;;;6.64;72.35254;949.3737;;;;
2019/04/05 05:39:14;;;;;;;52;33.3;;;;;;;6.66;71.87402;949.3631;;;;
2019/04/05 05:41:39;;;;;;;54.8;33.7;;;;;;;6.69;72.02734;949.3211;;;;
2019/04/05 05:44:04;;;;;;;51.5;33.8;;;;;;;6.53;73.18164;949.3148;;;;
2019/04/05 05:46:30;;;;;;;53.1;33.9;;;;;;;6.57;72.60449;949.3652;;;;
2019/04/05 05:48:55;;;;;;;54.3;34.6;;;;;;;6.52;72.74414;949.392;;;;
2019/04/05 05:51:20;;;;;;;57.2;35.8;;;;;;;6.59;72.58398;949.3377;;;;
2019/04/05 05:53:45;;;;;;;54;34.1;;;;;;;6.62;72.49707;949.3342;;;;
2019/04/05 05:56:10;;;;;;;53.6;34.3;;;;;;;6.61;72.93164;949.3605;;;;
2019/04/05 05:58:35;;;;;;;55.7;34.8;;;;;;;6.68;72.51953;949.3741;;;;
2019/04/05 06:01:00;;;;;;;54.8;34.8;;;;;;;6.73;72.24121;949.3422;;;;
2019/04/05 06:03:26;;;;;;;55;34.2;;;;;;;6.66;72.30957;949.418;;;;
2019/04/05 06:05:51;;;;;;;55;34;;;;;;;6.67;72.60742;949.3583;;;;
2019/04/05 06:08:16;;;;;;;54.3;34.9;;;;;;;6.73;72.39063;949.3842;;;;
2019/04/05 06:10:41;;;;;;;51.1;33.2;;;;;;;6.88;71.30176;949.3289;;;;
2019/04/05 06:13:06;;;;;;;54.8;34.4;;;;;;;6.9;71.13281;949.428;;;;
2019/04/05 06:15:31;;;;;;;56.6;33.8;;;;;;;6.87;71.71387;949.4529;;;;
2019/04/05 06:17:56;;;;;;;51.8;33.7;;;;;;;6.87;72.01172;949.4277;;;;
2019/04/05 06:20:21;;;;;;;49.3;32;;;;;;;6.96;71.21387;949.4754;;;;
2019/04/05 06:22:46;;;;;;;50.4;32.6;;;;;;;6.95;71.91016;949.3969;;;;
2019/04/05 06:25:12;;;;;;;50.3;32;;;;;;;6.99;71.51465;949.3837;;;;
2019/04/05 06:27:37;;;;;;;52.1;32.5;;;;;;;7.05;71.50391;949.4008;;;;
2019/04/05 06:30:02;;;;;;;49.2;31.9;;;;;;;7.11;71.47852;949.3904;;;;
2019/04/05 06:32:31;;;;;;;47.3;30.1;;;;;;;7.18;70.9502;949.4537;;;;
2019/04/05 06:34:55;;;;;;;47.7;30.5;;;;;;;7.26;70.28809;949.4731;;;;
2019/04/05 06:37:20;;;;;;;51.9;29.8;;;;;;;7.31;70.00684;949.485;;;;
2019/04/05 06:39:46;;;;;;;71.2;43.5;;;;;;;7.3;70.07422;949.5201;;;;
2019/04/05 06:42:11;;;;;;;58.2;37;;;;;;;7.24;70.14551;949.5228;;;;
2019/04/05 06:44:35;;;;;;;50.8;31.3;;;;;;;7.29;70.05078;949.5465;;;;
2019/04/05 06:47:00;;;;;;;49.5;30.6;;;;;;;7.26;69.9668;949.5201;;;;
2019/04/05 06:49:26;;;;;;;49.6;30.9;;;;;;;7.22;70.54492;949.508;;;;
2019/04/05 06:51:51;;;;;;;54.3;32.3;;;;;;;7.08;70.49805;949.4998;;;;
2019/04/05 06:54:16;;;;;;;51.5;30.9;;;;;;;7.1;70.61621;949.4423;;;;
2019/04/05 06:56:41;;;;;;;50.8;31.3;;;;;;;7.12;70.84961;949.3887;;;;
2019/04/05 06:59:06;;;;;;;47.2;27.8;;;;;;;7.05;72.90332;949.3879;;;;
2019/04/05 07:01:31;;;;;;;78.5;50.1;;;;;;;7.18;71.50293;949.3851;;;;
2019/04/05 07:03:56;;;;;;;54.5;33.3;;;;;;;7.17;71.4668;949.3822;;;;
2019/04/05 07:06:22;;;;;;;50.2;31.1;;;;;;;7.24;71.62695;949.4044;;;;
2019/04/05 07:08:47;;;;;;;54.7;32.3;;;;;;;7.27;71.82617;949.4171;;;;
2019/04/05 07:11:12;;;;;;;52.5;32.3;;;;;;;7.33;70.81348;949.4656;;;;
2019/04/05 07:13:37;;;;;;;51;30.7;;;;;;;7.41;70.51953;949.4124;;;;
2019/04/05 07:16:02;;;;;;;50.6;30.9;;;;;;;7.4;71.67676;949.3799;;;;
2019/04/05 07:18:27;;;;;;;56.5;32.1;;;;;;;7.33;71.5498;949.4187;;;;
2019/04/05 07:20:52;;;;;;;49.7;29.1;;;;;;;7.36;71.50879;949.4366;;;;
2019/04/05 07:23:17;;;;;;;51.2;30.3;;;;;;;7.24;71.97168;949.4034;;;;
2019/04/05 07:25:42;;;;;;;51.4;30.4;;;;;;;7.25;71.9502;949.4407;;;;
2019/04/05 07:28:07;;;;;;;53.9;30.4;;;;;;;7.28;72;949.3692;;;;
2019/04/05 07:30:33;;;;;;;51.5;30.7;;;;;;;7.09;72.47363;949.4472;;;;
2019/04/05 07:32:58;;;;;;;52.5;30.2;;;;;;;7.09;72.51953;949.4727;;;;
2019/04/05 07:35:23;;;;;;;45.7;27.4;;;;;;;7.16;72.41699;949.4818;;;;
2019/04/05 07:37:48;;;;;;;50.7;29.3;;;;;;;7.11;72.06348;949.4669;;;;
2019/04/05 07:40:13;;;;;;;54.9;30.5;;;;;;;7.01;72.02246;949.5297;;;;
2019/04/05 07:42:38;;;;;;;52.9;30.5;;;;;;;6.78;73.06348;949.5061;;;;
2019/04/05 07:45:04;;;;;;;56;30.8;;;;;;;6.87;72.75879;949.5412;;;;
2019/04/05 07:47:29;;;;;;;53.2;31.3;;;;;;;6.93;72.03223;949.6071;;;;
2019/04/05 07:49:54;;;;;;;97.6;58.3;;;;;;;7;72.55078;949.5981;;;;
2019/04/05 07:52:19;;;;;;;60.7;36;;;;;;;6.97;72.37207;949.5556;;;;
2019/04/05 07:54:44;;;;;;;52.6;32.2;;;;;;;6.87;71.83984;949.6262;;;;
2019/04/05 07:57:09;;;;;;;52;31.8;;;;;;;6.95;71.69238;949.617;;;;
2019/04/05 07:59:34;;;;;;;51.5;32.3;;;;;;;7;72.01074;949.6284;;;;
2019/04/05 08:02:00;;;;;;;52.4;32.6;;;;;;;7.08;71.64551;949.6349;;;;
2019/04/05 08:04:25;;;;;;;52.2;32;;;;;;;7.11;71.20313;949.6195;;;;
2019/04/05 08:06:50;;;;;;;51.7;33.3;;;;;;;7.17;70.75391;949.6669;;;;
2019/04/05 08:09:16;;;;;;;53.3;32.3;;;;;;;7.29;70.47559;949.6944;;;;
2019/04/05 08:11:41;;;;;;;52;31.8;;;;;;;7.28;70.49609;949.7089;;;;
2019/04/05 08:14:06;;;;;;;52.4;32.5;;;;;;;7.43;70.07324;949.72;;;;
2019/04/05 08:16:31;;;;;;;51.4;31.7;;;;;;;7.51;70.76367;949.7145;;;;
2019/04/05 08:18:56;;;;;;;53.4;32.9;;;;;;;7.39;70.43457;949.6912;;;;
2019/04/05 13:44:16;;;;;;;35.2;24.7;;;;;;;12.07;53.49902;948.4368;;;;
2019/04/05 13:46:41;;;;;;;26.7;19.6;;;;;;;12.19;53.98828;948.4936;;;;
2019/04/05 13:49:06;;;;;;;27.7;18.9;;;;;;;12.29;53.81543;948.4617;;;;
2019/04/05 13:52:05;;;;;;;30.7;20.5;;;;;;;12.29;52.16602;948.4064;;;;
2019/04/05 13:54:30;;;;;;;30.4;21;;;;;;;12.19;53.30273;948.459;;;;
2019/04/05 13:58:25;;;;;;;28.4;19.4;;;;;;;12.11;52.00391;948.3635;;;;
2019/04/05 14:00:50;;;;;;;28.7;20.5;;;;;;;12.14;52.91309;948.3293;;;;
2019/04/05 14:03:15;;;;;;;30.1;20.2;;;;;;;12.14;52.58789;948.3461;;;;
2019/04/05 14:05:43;;;;;;;30.9;21.4;;;;;;;12.15;52.59082;948.3055;;;;
2019/04/05 14:08:06;;;;;;;30.2;21;;;;;;;12.12;52.02832;948.212;;;;
2019/04/05 14:10:31;;;;;;;30.9;21.7;;;;;;;12.02;52.10938;948.2697;;;;
2019/04/05 14:12:56;;;;;;;28.5;21.1;;;;;;;12;53.12891;948.2628;;;;
2019/04/05 14:15:21;;;;;;;204.9;146.8;;;;;;;11.9;54.32422;948.2256;;;;
2019/04/05 14:17:46;;;;;;;33.5;22.3;;;;;;;11.8;54.61328;948.2575;;;;
2019/04/05 14:20:12;;;;;;;34.1;22.4;;;;;;;11.67;55.35059;948.2369;;;;
2019/04/05 14:22:37;;;;;;;34;23.2;;;;;;;11.52;56.16602;948.2418;;;;
2019/04/05 14:25:02;;;;;;;33.9;23.4;;;;;;;11.42;56.1875;948.2212;;;;
2019/04/05 14:27:27;;;;;;;33.4;22.8;;;;;;;11.51;55.96777;948.2723;;;;
2019/04/05 14:29:52;;;;;;;36.2;24;;;;;;;11.52;56.03906;948.228;;;;
2019/04/05 14:32:18;;;;;;;54.5;33.6;;;;;;;11.68;55.16602;948.1886;;;;
2019/04/05 14:34:43;;;;;;;41;26.4;;;;;;;11.53;55.08984;948.2308;;;;
2019/04/05 14:37:08;;;;;;;36.7;25;;;;;;;11.43;56.22363;948.2148;;;;
2019/04/05 14:39:33;;;;;;;36.4;23.1;;;;;;;11.35;56.66699;948.196;;;;
2019/04/05 14:41:58;;;;;;;36.3;24.4;;;;;;;11.32;56.67188;948.1923;;;;
2019/04/05 14:44:23;;;;;;;37.1;24.2;;;;;;;11.37;56.62207;948.0865;;;;
2019/04/05 14:46:48;;;;;;;38.4;24.4;;;;;;;11.46;56.47168;948.1082;;;;
2019/04/05 14:49:13;;;;;;;40.3;26;;;;;;;11.54;56.36523;948.123;;;;
2019/04/05 14:51:38;;;;;;;39;26.2;;;;;;;11.56;56.37988;948.1238;;;;
2019/04/05 14:54:04;;;;;;;43.3;27.4;;;;;;;11.56;56.14844;948.111;;;;
2019/04/05 14:56:29;;;;;;;43.2;26.6;;;;;;;11.42;57.06836;948.1608;;;;
2019/04/05 14:58:54;;;;;;;43.6;28.7;;;;;;;11.2;57.5625;948.0762;;;;
2019/04/05 15:01:19;;;;;;;41.2;27.1;;;;;;;11.14;57.62305;948.0248;;;;
2019/04/05 15:03:44;;;;;;;45.1;27.7;;;;;;;11.26;57.51172;948.0768;;;;
2019/04/05 15:06:09;;;;;;;43.2;27.9;;;;;;;11.02;58.27832;947.9776;;;;
2019/04/05 15:08:34;;;;;;;41.7;27.1;;;;;;;10.98;57.75098;948.0222;;;;
2019/04/05 15:10:59;;;;;;;43.7;28.3;;;;;;;10.98;58.2959;947.971;;;;
2019/04/05 15:13:25;;;;;;;43.6;28.8;;;;;;;10.91;58.90039;947.9628;;;;
2019/04/05 15:15:50;;;;;;;42.1;27.1;;;;;;;11.35;58.06738;947.9744;;;;
2019/04/05 15:18:15;;;;;;;43.7;27.7;;;;;;;11.76;56.93945;947.9861;;;;
2019/04/05 15:20:43;;;;;;;44.2;28.6;;;;;;;11.96;55.50293;947.9747;;;;
2019/04/05 15:23:08;;;;;;;44.6;28.9;;;;;;;12.02;55.01172;947.9529;;;;
2019/04/05 15:25:33;;;;;;;42.2;28.3;;;;;;;11.66;56.64844;948.0073;;;;
2019/04/05 15:27:58;;;;;;;41.7;27.4;;;;;;;11.67;55.89453;947.9216;;;;
2019/04/05 15:30:23;;;;;;;40.7;27.4;;;;;;;11.67;55.50098;947.955;;;;
2019/04/05 15:32:48;;;;;;;44.9;27.6;;;;;;;11.7;55.7832;947.9558;;;;
2019/04/05 15:35:14;;;;;;;43.3;28.3;;;;;;;11.45;56.58594;947.9131;;;;
2019/04/05 15:37:39;;;;;;;50.6;31.7;;;;;;;11.31;56.30176;947.9205;;;;
2019/04/05 15:40:04;;;;;;;48.2;30.1;;;;;;;11.46;57.1543;947.9939;;;;
2019/04/05 15:42:29;;;;;;;44.3;28.7;;;;;;;11.59;57.00977;947.9747;;;;
2019/04/05 15:44:54;;;;;;;40.5;27.4;;;;;;;11.77;55.86133;947.9889;;;;
2019/04/05 15:47:19;;;;;;;66.9;45;;;;;;;11.85;55.36133;948.045;;;;
2019/04/05 15:49:45;;;;;;;49.1;32;;;;;;;11.65;56.15918;948.057;;;;
2019/04/05 15:52:10;;;;;;;49.9;32.2;;;;;;;11.61;56.6543;948.074;;;;
2019/04/05 15:54:35;;;;;;;52.2;32.9;;;;;;;11.7;56.38574;948.1135;;;;
2019/04/05 15:57:00;;;;;;;49.5;33.1;;;;;;;11.66;56.39258;948.0714;;;;
2019/04/05 15:59:25;;;;;;;50.6;32.7;;;;;;;11.72;55.90137;948.0256;;;;
2019/04/05 16:01:50;;;;;;;47.4;31.4;;;;;;;11.74;55.81055;948.0441;;;;
2019/04/05 16:04:15;;;;;;;46.5;31.1;;;;;;;11.7;55.93457;948.0148;;;;
2019/04/05 16:06:41;;;;;;;44;30.9;;;;;;;11.76;55.60547;948.0875;;;;
2019/04/05 16:09:08;;;;;;;47.2;31.3;;;;;;;11.83;55.33594;948.061;;;;
2019/04/05 16:11:31;;;;;;;47.7;32.7;;;;;;;11.89;55.43652;948.0561;;;;
2019/04/05 16:13:56;;;;;;;45.5;31.8;;;;;;;11.93;54.87305;948.1071;;;;
2019/04/05 16:16:21;;;;;;;48.8;32.1;;;;;;;11.86;55.35059;948.0873;;;;
2019/04/05 16:18:46;;;;;;;46;31.6;;;;;;;11.92;55.81152;948.1042;;;;
2019/04/05 16:21:11;;;;;;;45.9;31.4;;;;;;;11.87;55.78125;948.103;;;;
2019/04/05 16:23:36;;;;;;;48.9;32.7;;;;;;;11.99;55.54199;948.0808;;;;
2019/04/05 16:26:02;;;;;;;48.5;32.8;;;;;;;12;55.20703;948.136;;;;
2019/04/05 16:28:30;;;;;;;47.1;33.3;;;;;;;12.04;54.74805;948.1077;;;;
2019/04/05 16:30:52;;;;;;;42.3;28.6;;;;;;;11.94;56.55762;948.1563;;;;
2019/04/05 16:33:18;;;;;;;44.4;31.7;;;;;;;12.12;55.15234;948.1262;;;;
2019/04/05 16:35:44;;;;;;;45.6;32.2;;;;;;;12.2;54.43066;948.0859;;;;
2019/04/05 16:38:08;;;;;;;45.7;32.3;;;;;;;12.14;54.65625;948.1576;;;;
2019/04/05 16:40:34;;;;;;;45.2;32.2;;;;;;;12.1;55.02246;948.0991;;;;
2019/04/05 16:42:59;;;;;;;49.7;33.7;;;;;;;11.84;55.74316;948.0934;;;;
2019/04/05 16:45:25;;;;;;;46.8;31.4;;;;;;;11.57;56.42773;948.11;;;;
2019/04/05 16:47:50;;;;;;;47.4;32.8;;;;;;;11.26;57.53418;948.1497;;;;
2019/04/05 16:50:15;;;;;;;51.7;33.3;;;;;;;11.1;58.16211;948.1284;;;;
2019/04/05 16:52:40;;;;;;;48.2;33.3;;;;;;;11.04;59.04688;948.1537;;;;
2019/04/05 16:55:06;;;;;;;50.1;32.9;;;;;;;10.95;59.19434;948.1291;;;;
2019/04/05 16:57:31;;;;;;;50.3;32.9;;;;;;;10.84;60.55664;948.191;;;;
2019/04/05 16:59:57;;;;;;;360.3;271;;;;;;;10.87;59.97168;948.161;;;;
2019/04/05 17:02:22;;;;;;;73.5;46.7;;;;;;;10.77;61.05762;948.1747;;;;
2019/04/05 17:04:48;;;;;;;49.8;32.8;;;;;;;10.62;60.50488;948.1816;;;;
2019/04/05 17:07:13;;;;;;;51.1;32.5;;;;;;;10.55;60.54004;948.2087;;;;
2019/04/05 17:09:38;;;;;;;47.4;30.7;;;;;;;10.55;60.72559;948.192;;;;
2019/04/05 17:12:03;;;;;;;49;31.6;;;;;;;10.68;60.9873;948.1735;;;;
2019/04/05 17:14:28;;;;;;;49.8;32.3;;;;;;;10.74;61.27246;948.1531;;;;
2019/04/05 17:16:53;;;;;;;48.5;32.1;;;;;;;10.82;60.6123;948.1724;;;;
2019/04/05 17:19:19;;;;;;;47.1;31.4;;;;;;;10.73;60.7168;948.171;;;;
2019/04/05 17:21:44;;;;;;;46.3;30.2;;;;;;;10.75;60.83496;948.2328;;;;
2019/04/05 17:24:09;;;;;;;51.7;31.5;;;;;;;11.01;60.45605;948.2603;;;;
2019/04/05 17:26:34;;;;;;;223;157.7;;;;;;;11.11;60.44531;948.2042;;;;
2019/04/05 17:28:59;;;;;;;54.2;36.9;;;;;;;11.23;59.15332;948.2564;;;;
2019/04/05 17:31:24;;;;;;;49.2;31.9;;;;;;;11.32;58.67871;948.2859;;;;
2019/04/05 17:33:50;;;;;;;48.9;31.4;;;;;;;11.17;58.96973;948.2905;;;;
2019/04/05 17:36:15;;;;;;;47.6;31.8;;;;;;;11.25;58.57715;948.2739;;;;
2019/04/05 17:38:40;;;;;;;49.5;31.9;;;;;;;11.28;58.32617;948.3644;;;;
2019/04/05 17:41:06;;;;;;;45.9;30.6;;;;;;;11.31;58.52637;948.3511;;;;
2019/04/05 17:43:31;;;;;;;46.3;30.5;;;;;;;11.36;58.19629;948.4049;;;;
2019/04/05 17:45:56;;;;;;;45.7;29.6;;;;;;;11.42;57.90332;948.3582;;;;
2019/04/05 17:48:22;;;;;;;42.9;29.1;;;;;;;11.43;57.36133;948.3853;;;;
2019/04/05 17:50:47;;;;;;;43;28;;;;;;;11.39;56.45117;948.4008;;;;
2019/04/05 17:53:12;;;;;;;41.2;28;;;;;;;11.42;56.4082;948.4465;;;;
2019/04/05 17:55:37;;;;;;;40.7;28.4;;;;;;;11.4;57.11328;948.4883;;;;
2019/04/05 17:58:03;;;;;;;42.7;27.5;;;;;;;11.43;56.67578;948.5352;;;;
2019/04/05 18:00:28;;;;;;;42.9;28.5;;;;;;;11.44;56.59668;948.5291;;;;
2019/04/05 18:02:55;;;;;;;44.5;29.1;;;;;;;11.41;58.41211;948.5475;;;;
2019/04/05 18:05:20;;;;;;;44.6;29.6;;;;;;;11.34;58.11328;948.4888;;;;
2019/04/05 18:07:45;;;;;;;43.7;28.1;;;;;;;11.33;57.90234;948.5244;;;;
2019/04/05 18:10:10;;;;;;;39.2;27.2;;;;;;;11.36;57.24609;948.5626;;;;
2019/04/05 18:12:36;;;;;;;40;28;;;;;;;11.31;58.61914;948.6072;;;;
2019/04/05 18:15:01;;;;;;;127.6;98.1;;;;;;;11.31;58.67773;948.6161;;;;
2019/04/05 18:17:26;;;;;;;56.9;39.1;;;;;;;11.35;57.88379;948.606;;;;
2019/04/05 18:19:51;;;;;;;41.6;27.2;;;;;;;11.25;58.46191;948.5812;;;;
2019/04/05 18:22:16;;;;;;;43.4;28.4;;;;;;;11.25;59.2959;948.5941;;;;
2019/04/05 18:24:41;;;;;;;38.5;27.4;;;;;;;11.29;59.17188;948.6362;;;;
2019/04/05 18:27:06;;;;;;;41;27.6;;;;;;;11.28;58.34766;948.655;;;;
2019/04/05 18:29:31;;;;;;;41.7;29.2;;;;;;;11.25;58.94727;948.6375;;;;
2019/04/05 18:31:56;;;;;;;39.8;27.3;;;;;;;11.23;58.33008;948.7046;;;;
2019/04/05 18:34:22;;;;;;;42.5;28;;;;;;;11.23;58.49219;948.6278;;;;
2019/04/05 18:36:48;;;;;;;41.3;27.2;;;;;;;11.23;58.27246;948.7213;;;;
2019/04/05 18:39:13;;;;;;;40.6;27.8;;;;;;;11.22;57.81934;948.7134;;;;
2019/04/05 18:41:38;;;;;;;39.6;27.2;;;;;;;11.23;57.6582;948.7085;;;;
2019/04/05 18:44:04;;;;;;;41.1;27.3;;;;;;;11.18;57.81348;948.7278;;;;
2019/04/05 18:46:29;;;;;;;39.4;26.9;;;;;;;11.1;58.20801;948.7559;;;;
2019/04/05 18:48:58;;;;;;;38.5;26.8;;;;;;;11.08;58.41309;948.7899;;;;
2019/04/05 18:51:21;;;;;;;39.9;27.2;;;;;;;11.08;58.59961;948.7501;;;;
2019/04/05 18:53:47;;;;;;;42;28;;;;;;;11.08;58.2041;948.7974;;;;
2019/04/05 18:56:12;;;;;;;40.2;27.5;;;;;;;11.04;58.45605;948.8067;;;;
2019/04/05 18:58:37;;;;;;;39.6;26.8;;;;;;;11.02;58.60254;948.8403;;;;
2019/04/05 19:01:02;;;;;;;41.5;27.8;;;;;;;10.99;58.71387;948.8828;;;;
2019/04/05 19:03:27;;;;;;;41.6;28;;;;;;;10.89;59.16309;948.8964;;;;
2019/04/05 19:05:53;;;;;;;41.7;27.9;;;;;;;10.79;60.04004;948.906;;;;
2019/04/05 19:08:18;;;;;;;40.1;27.5;;;;;;;10.8;60.5752;948.8961;;;;
2019/04/05 19:10:43;;;;;;;132.9;100.7;;;;;;;10.85;60.2002;949.0078;;;;
2019/04/05 19:13:08;;;;;;;41.8;28.6;;;;;;;10.88;60.07715;948.9575;;;;
2019/04/05 19:15:34;;;;;;;42.8;27.8;;;;;;;10.91;60.3252;948.9958;;;;
2019/04/05 19:17:59;;;;;;;39.4;27.2;;;;;;;10.88;60.34277;948.9998;;;;
2019/04/05 19:20:24;;;;;;;45.7;29.3;;;;;;;10.73;60.55469;949.0027;;;;
2019/04/05 19:22:49;;;;;;;46.8;30.3;;;;;;;10.68;60.5127;949.0691;;;;
2019/04/05 19:25:14;;;;;;;45.5;28.9;;;;;;;10.66;60.625;949.0555;;;;